createdAt,value
2023-03-04T00:04:48.169Z,61.59
2023-03-04T00:09:49.542Z,61.47
2023-03-04T00:14:51.361Z,62.06
2023-03-04T00:19:52.700Z,61.26
2023-03-04T00:24:54.065Z,62.03
2023-03-04T00:29:56.114Z,62.42
2023-03-04T00:34:57.481Z,61.56
2023-03-04T00:39:59.474Z,60.94
2023-03-04T00:45:00.818Z,61.93
2023-03-04T00:50:02.322Z,62.05
2023-03-04T00:55:04.610Z,62.23
2023-03-04T01:00:06.627Z,62.13
2023-03-04T01:05:08.734Z,62.34
2023-03-04T01:10:12.606Z,62.16
2023-03-04T01:15:14.422Z,61.85
2023-03-04T01:20:15.943Z,61.07
2023-03-04T01:25:17.381Z,61.25
2023-03-04T01:30:18.699Z,60.84
2023-03-04T01:35:20.033Z,61.02
2023-03-04T01:40:22.004Z,61.08
2023-03-04T01:45:23.944Z,61.09
2023-03-04T01:50:35.080Z,60.61
2023-03-04T01:55:36.937Z,59.86
2023-03-04T02:00:38.977Z,60.05
2023-03-04T02:05:46.321Z,60.32
2023-03-04T02:10:48.422Z,61.04
2023-03-04T02:15:49.835Z,60.65
2023-03-04T02:21:13.360Z,60.30
2023-03-04T02:26:20.104Z,60.12
2023-03-04T02:31:30.259Z,60.21
2023-03-04T02:36:33.371Z,59.95
2023-03-04T02:41:35.649Z,59.68
2023-03-04T02:46:37.076Z,59.81
2023-03-04T02:51:38.504Z,59.91
2023-03-04T02:56:45.352Z,60.16
2023-03-04T03:01:47.027Z,59.99
2023-03-04T03:06:48.873Z,59.87
2023-03-04T03:11:50.239Z,60.00
2023-03-04T03:16:51.570Z,59.92
2023-03-04T03:21:52.968Z,59.89
2023-03-04T03:26:54.292Z,60.31
2023-03-04T03:31:56.919Z,60.38
2023-03-04T03:36:58.475Z,60.17
2023-03-04T03:41:59.918Z,59.69
2023-03-04T03:47:01.423Z,59.46
2023-03-04T03:52:03.227Z,59.32
2023-03-04T03:57:04.564Z,59.42
2023-03-04T04:02:06.223Z,59.35
2023-03-04T04:07:07.645Z,59.67
2023-03-04T04:12:09.136Z,60.09
2023-03-04T04:17:11.651Z,59.69
2023-03-04T04:22:16.232Z,60.02
2023-03-04T04:27:17.570Z,59.58
2023-03-04T04:32:18.916Z,59.56
2023-03-04T04:37:20.772Z,59.46
2023-03-04T04:42:22.460Z,59.50
2023-03-04T04:47:23.906Z,59.45
2023-03-04T04:52:25.246Z,59.97
2023-03-04T04:57:26.637Z,59.58
2023-03-04T05:02:28.033Z,59.93
2023-03-04T05:07:29.396Z,59.80
2023-03-04T05:12:30.773Z,59.66
2023-03-04T05:17:32.124Z,59.68
2023-03-04T05:22:34.021Z,59.41
2023-03-04T05:27:37.683Z,59.15
2023-03-04T05:32:39.449Z,59.32
2023-03-04T05:37:40.818Z,59.16
2023-03-04T05:42:42.183Z,58.93
2023-03-04T05:47:43.679Z,58.69
2023-03-04T05:52:45.085Z,58.96
2023-03-04T05:57:46.797Z,59.21
2023-03-04T06:02:48.393Z,58.87
2023-03-04T06:07:52.175Z,58.89
2023-03-04T06:12:53.751Z,59.17
2023-03-04T06:17:55.101Z,58.40
2023-03-04T06:22:56.584Z,58.47
2023-03-04T06:27:57.961Z,58.15
2023-03-04T06:32:59.266Z,58.85
2023-03-04T06:38:00.641Z,58.60
2023-03-04T06:43:02.064Z,58.43
2023-03-04T06:48:03.590Z,58.33
2023-03-04T06:53:05.319Z,57.77
2023-03-04T06:58:06.743Z,58.89
2023-03-04T07:03:11.644Z,58.32
2023-03-04T07:08:13.291Z,58.03
2023-03-04T07:13:15.008Z,56.86
2023-03-04T07:18:16.316Z,57.81
2023-03-04T07:23:17.735Z,57.21
2023-03-04T07:28:19.360Z,57.12
2023-03-04T07:33:20.812Z,57.28
2023-03-04T07:38:22.204Z,56.72
2023-03-04T07:43:23.640Z,57.25
2023-03-04T07:48:25.130Z,56.48
2023-03-04T07:53:26.485Z,57.56
2023-03-04T07:58:27.822Z,57.07
2023-03-04T08:03:29.744Z,56.57
2023-03-04T08:08:31.773Z,56.64
2023-03-04T08:13:33.251Z,56.83
2023-03-04T08:18:34.816Z,56.42
2023-03-04T08:23:36.254Z,56.07
2023-03-04T08:28:38.340Z,56.05
2023-03-04T08:33:39.769Z,55.85
2023-03-04T08:38:41.503Z,55.66
2023-03-04T08:43:43.874Z,55.54
2023-03-04T08:48:45.616Z,55.78
2023-03-04T08:53:47.187Z,55.92
2023-03-04T08:58:48.563Z,55.36
2023-03-04T09:03:50.088Z,55.06
2023-03-04T09:08:51.525Z,55.05
2023-03-04T09:13:53.685Z,54.42
2023-03-04T09:18:55.216Z,54.82
2023-03-04T09:23:56.694Z,54.71
2023-03-04T09:29:00.750Z,54.29
2023-03-04T09:34:02.187Z,54.22
2023-03-04T09:39:04.887Z,54.10
2023-03-04T09:44:24.257Z,54.16
2023-03-04T09:49:26.515Z,53.42
2023-03-04T09:54:46.716Z,53.45
2023-03-04T10:00:13.088Z,53.33
2023-03-04T10:05:19.985Z,52.88
2023-03-04T10:10:33.848Z,53.75
2023-03-04T10:15:42.374Z,53.90
2023-03-04T10:20:56.809Z,52.63
2023-03-04T10:26:00.220Z,52.58
2023-03-04T10:31:27.239Z,52.49
2023-03-04T10:36:31.411Z,51.92
2023-03-04T10:41:33.242Z,51.70
2023-03-04T10:46:48.383Z,52.00
2023-03-04T10:52:03.855Z,52.49
2023-03-04T10:57:14.780Z,52.09
2023-03-04T11:02:29.160Z,51.55
2023-03-04T11:07:34.096Z,51.49
2023-03-04T11:12:39.870Z,51.27
2023-03-04T11:17:46.989Z,51.46
2023-03-04T11:22:48.681Z,51.89
2023-03-04T11:27:55.810Z,51.57
2023-03-04T11:33:09.989Z,51.54
2023-03-04T11:38:24.648Z,52.60
2023-03-04T11:43:26.046Z,52.25
2023-03-04T11:48:45.404Z,51.68
2023-03-04T11:53:59.723Z,52.76
2023-03-04T11:59:15.371Z,52.86
2023-03-04T12:04:54.549Z,52.81
2023-03-04T12:10:22.509Z,52.03
2023-03-04T12:15:32.763Z,51.73
2023-03-04T12:20:46.281Z,51.27
2023-03-04T12:26:17.049Z,51.94
2023-03-04T12:31:35.841Z,50.80
2023-03-04T12:36:49.624Z,50.84
2023-03-04T12:41:57.214Z,49.12
2023-03-04T12:47:26.344Z,49.20
2023-03-04T12:53:03.776Z,48.41
2023-03-04T12:58:13.892Z,47.87
2023-03-04T13:03:26.597Z,47.50
2023-03-04T13:08:33.997Z,47.26
2023-03-04T13:13:37.175Z,47.62
2023-03-04T13:18:39.471Z,47.01
2023-03-04T13:23:41.009Z,48.09
2023-03-04T13:28:43.028Z,47.57
2023-03-04T13:33:48.657Z,47.49
2023-03-04T13:39:20.871Z,47.54
2023-03-04T13:44:34.411Z,47.62
2023-03-04T13:49:35.759Z,47.93
2023-03-04T13:54:37.466Z,48.09
2023-03-04T13:59:45.205Z,48.26
2023-03-04T14:04:57.401Z,47.97
2023-03-04T14:10:15.482Z,48.17
2023-03-04T14:15:21.634Z,48.51
2023-03-04T14:20:33.920Z,48.77
2023-03-04T14:25:36.980Z,49.21
2023-03-04T14:30:43.123Z,49.39
2023-03-04T14:35:48.128Z,49.97
2023-03-04T14:41:05.959Z,50.71
2023-03-04T14:46:13.067Z,50.48
2023-03-04T14:51:36.948Z,50.92
2023-03-04T14:56:43.888Z,51.18
2023-03-04T15:01:46.092Z,51.17
2023-03-04T15:06:50.250Z,51.36
2023-03-04T15:12:01.975Z,51.68
2023-03-04T15:17:03.478Z,52.22
2023-03-04T15:22:06.823Z,52.50
2023-03-04T15:27:12.315Z,52.84
2023-03-04T15:32:13.696Z,52.09
2023-03-04T15:37:27.298Z,52.58
2023-03-04T15:42:28.939Z,52.77
2023-03-04T15:47:30.389Z,52.93
2023-03-04T15:52:33.502Z,53.22
2023-03-04T15:57:34.935Z,53.45
2023-03-04T16:02:36.297Z,53.09
2023-03-04T16:07:40.431Z,53.39
2023-03-04T16:12:42.132Z,53.27
2023-03-04T16:17:44.026Z,52.82
2023-03-04T16:22:47.056Z,53.01
2023-03-04T16:27:52.304Z,53.31
2023-03-04T16:32:54.368Z,53.67
2023-03-04T16:37:56.821Z,54.05
2023-03-04T16:42:58.173Z,54.52
2023-03-04T16:47:59.576Z,54.62
2023-03-04T16:53:01.008Z,54.96
2023-03-04T16:58:02.373Z,55.40
2023-03-04T17:03:04.213Z,55.97
2023-03-04T17:08:05.786Z,55.75
2023-03-04T17:13:09.067Z,56.42
2023-03-04T17:18:10.507Z,56.86
2023-03-04T17:23:11.914Z,57.67
2023-03-04T17:28:13.355Z,57.92
2023-03-04T17:33:14.710Z,58.09
2023-03-04T17:38:16.538Z,58.82
2023-03-04T17:43:17.866Z,58.65
2023-03-04T17:48:19.322Z,58.78
2023-03-04T17:53:20.788Z,58.74
2023-03-04T17:58:23.199Z,59.53
2023-03-04T18:03:24.542Z,60.29
2023-03-04T18:08:26.015Z,60.00
2023-03-04T18:13:27.388Z,60.34
2023-03-04T18:18:28.947Z,60.54
2023-03-04T18:23:30.878Z,60.66
2023-03-04T18:28:32.418Z,61.10
2023-03-04T18:33:34.446Z,61.47
2023-03-04T18:38:35.797Z,61.79
2023-03-04T18:43:37.195Z,61.65
2023-03-04T18:48:45.016Z,62.31
2023-03-04T18:53:46.509Z,62.12
2023-03-04T18:58:50.472Z,61.45
2023-03-04T19:03:54.248Z,61.62
2023-03-04T19:08:55.727Z,61.59
2023-03-04T19:13:57.338Z,61.14
2023-03-04T19:18:58.706Z,61.64
2023-03-04T19:24:00.095Z,61.24
2023-03-04T19:29:01.812Z,61.26
2023-03-04T19:34:04.850Z,61.22
2023-03-04T19:39:08.113Z,61.00
2023-03-04T19:44:09.469Z,61.47
2023-03-04T19:49:11.352Z,61.11
2023-03-04T19:54:12.695Z,61.71
2023-03-04T19:59:14.163Z,61.83
2023-03-04T20:04:18.410Z,62.64
2023-03-04T20:09:19.912Z,62.15
2023-03-04T20:14:21.322Z,62.83
2023-03-04T20:19:22.694Z,62.65
2023-03-04T20:24:25.164Z,62.43
2023-03-04T20:29:28.521Z,63.72
2023-03-04T20:34:29.835Z,63.71
2023-03-04T20:39:31.279Z,64.50
2023-03-04T20:44:33.140Z,64.42
2023-03-04T20:49:34.754Z,64.89
2023-03-04T20:54:38.461Z,64.26
2023-03-04T20:59:40.984Z,65.05
2023-03-04T21:04:43.850Z,64.61
2023-03-04T21:09:45.385Z,64.67
2023-03-04T21:14:46.983Z,64.07
2023-03-04T21:19:48.299Z,64.50
2023-03-04T21:24:49.746Z,64.57
2023-03-04T21:29:52.522Z,64.09
2023-03-04T21:34:54.889Z,65.03
2023-03-04T21:39:56.324Z,64.73
2023-03-04T21:44:57.759Z,64.82
2023-03-04T21:49:59.046Z,64.05
2023-03-04T21:55:00.566Z,64.32
2023-03-04T22:00:02.456Z,64.49
2023-03-04T22:05:05.009Z,64.82
2023-03-04T22:10:06.999Z,64.77
2023-03-04T22:15:10.172Z,64.57
2023-03-04T22:20:12.431Z,64.70
2023-03-04T22:25:13.846Z,64.42
2023-03-04T22:30:17.314Z,64.35
2023-03-04T22:35:19.303Z,64.13
2023-03-04T22:40:20.842Z,64.60
2023-03-04T22:45:22.250Z,64.34
2023-03-04T22:50:23.663Z,63.94
2023-03-04T22:55:25.003Z,63.89
2023-03-04T23:00:28.477Z,64.26
2023-03-04T23:05:29.864Z,63.82
2023-03-04T23:10:31.228Z,63.47
2023-03-04T23:15:32.521Z,63.65
2023-03-04T23:20:33.907Z,63.29
2023-03-04T23:25:35.926Z,63.29
2023-03-04T23:30:37.793Z,62.63
2023-03-04T23:35:40.145Z,62.21
2023-03-04T23:40:41.512Z,61.51
2023-03-04T23:45:43.583Z,61.35
2023-03-04T23:50:51.476Z,60.95
2023-03-04T23:55:52.921Z,60.96
